sensor_id;sensor_type;location;lat;lon;timestamp;temperature;humidity
14934;DHT22;7560;51.364;12.384;2023-04-15T00:01:01;7.70;99.90
14934;DHT22;7560;51.364;12.384;2023-04-15T00:06:03;7.80;99.90
14934;DHT22;7560;51.364;12.384;2023-04-15T00:11:05;7.60;99.90
14934;DHT22;7560;51.364;12.384;2023-04-15T00:16:07;7.60;99.90
14934;DHT22;7560;51.364;12.384;2023-04-15T00:21:09;7.70;99.90
14934;DHT22;7560;51.364;12.384;2023-04-15T00:26:11;7.70;99.90
14934;DHT22;7560;51.364;12.384;2023-04-15T00:31:13;7.70;99.90
14934;DHT22;7560;51.364;12.384;2023-04-15T00:36:15;7.60;99.90
14934;DHT22;7560;51.364;12.384;2023-04-15T00:41:18;7.50;99.90
14934;DHT22;7560;51.364;12.384;2023-04-15T00:46:20;7.60;99.90
14934;DHT22;7560;51.364;12.384;2023-04-15T00:51:23;7.60;99.90
14934;DHT22;7560;51.364;12.384;2023-04-15T00:56:25;7.60;99.90
14934;DHT22;7560;51.364;12.384;2023-04-15T01:01:29;7.60;99.90
14934;DHT22;7560;51.364;12.384;2023-04-15T01:06:32;7.60;99.90
14934;DHT22;7560;51.364;12.384;2023-04-15T01:11:34;7.70;99.90
14934;DHT22;7560;51.364;12.384;2023-04-15T01:16:37;7.60;99.90
14934;DHT22;7560;51.364;12.384;2023-04-15T01:21:40;7.50;99.90
14934;DHT22;7560;51.364;12.384;2023-04-15T01:26:42;7.60;99.90
14934;DHT22;7560;51.364;12.384;2023-04-15T01:31:50;7.60;99.90
14934;DHT22;7560;51.364;12.384;2023-04-15T01:36:52;7.60;99.90
14934;DHT22;7560;51.364;12.384;2023-04-15T01:41:54;7.60;99.90
14934;DHT22;7560;51.364;12.384;2023-04-15T01:46:56;7.70;99.90
14934;DHT22;7560;51.364;12.384;2023-04-15T01:51:59;7.50;99.90
14934;DHT22;7560;51.364;12.384;2023-04-15T01:57:01;7.70;99.90
14934;DHT22;7560;51.364;12.384;2023-04-15T02:02:03;7.40;99.90
14934;DHT22;7560;51.364;12.384;2023-04-15T02:07:05;7.40;99.90
14934;DHT22;7560;51.364;12.384;2023-04-15T02:12:08;7.30;99.90
14934;DHT22;7560;51.364;12.384;2023-04-15T02:17:09;7.40;99.90
14934;DHT22;7560;51.364;12.384;2023-04-15T02:22:11;7.40;99.90
14934;DHT22;7560;51.364;12.384;2023-04-15T02:27:18;7.30;99.90
14934;DHT22;7560;51.364;12.384;2023-04-15T02:32:20;7.30;99.90
14934;DHT22;7560;51.364;12.384;2023-04-15T02:37:23;7.30;99.90
14934;DHT22;7560;51.364;12.384;2023-04-15T02:42:27;7.30;99.90
14934;DHT22;7560;51.364;12.384;2023-04-15T02:47:30;7.20;99.90
14934;DHT22;7560;51.364;12.384;2023-04-15T02:52:32;7.30;99.90
14934;DHT22;7560;51.364;12.384;2023-04-15T02:57:34;7.30;99.90
14934;DHT22;7560;51.364;12.384;2023-04-15T03:02:39;7.20;99.90
14934;DHT22;7560;51.364;12.384;2023-04-15T03:07:42;7.20;99.90
14934;DHT22;7560;51.364;12.384;2023-04-15T03:12:44;7.30;99.90
14934;DHT22;7560;51.364;12.384;2023-04-15T03:17:46;7.20;99.90
14934;DHT22;7560;51.364;12.384;2023-04-15T03:22:50;7.30;99.90
14934;DHT22;7560;51.364;12.384;2023-04-15T03:27:51;7.20;99.90
14934;DHT22;7560;51.364;12.384;2023-04-15T03:32:53;7.20;99.90
14934;DHT22;7560;51.364;12.384;2023-04-15T03:37:55;7.30;99.90
14934;DHT22;7560;51.364;12.384;2023-04-15T03:42:57;7.20;99.90
14934;DHT22;7560;51.364;12.384;2023-04-15T03:47:59;7.20;99.90
14934;DHT22;7560;51.364;12.384;2023-04-15T03:53:16;7.20;99.90
14934;DHT22;7560;51.364;12.384;2023-04-15T03:58:18;7.30;99.90
14934;DHT22;7560;51.364;12.384;2023-04-15T04:03:19;7.30;99.90
14934;DHT22;7560;51.364;12.384;2023-04-15T04:08:22;7.30;99.90
14934;DHT22;7560;51.364;12.384;2023-04-15T04:13:23;7.30;99.90
14934;DHT22;7560;51.364;12.384;2023-04-15T04:18:25;7.20;99.90
14934;DHT22;7560;51.364;12.384;2023-04-15T04:23:27;7.30;99.90
14934;DHT22;7560;51.364;12.384;2023-04-15T04:28:29;7.30;99.90
14934;DHT22;7560;51.364;12.384;2023-04-15T04:33:31;7.20;99.90
14934;DHT22;7560;51.364;12.384;2023-04-15T04:38:32;7.10;99.90
14934;DHT22;7560;51.364;12.384;2023-04-15T04:43:34;7.20;99.90
14934;DHT22;7560;51.364;12.384;2023-04-15T04:48:36;7.30;99.90
14934;DHT22;7560;51.364;12.384;2023-04-15T04:53:38;7.30;99.90
14934;DHT22;7560;51.364;12.384;2023-04-15T04:58:39;7.40;99.90
14934;DHT22;7560;51.364;12.384;2023-04-15T05:03:42;7.30;99.90
14934;DHT22;7560;51.364;12.384;2023-04-15T05:08:44;7.30;99.90
14934;DHT22;7560;51.364;12.384;2023-04-15T05:13:47;7.30;99.90
14934;DHT22;7560;51.364;12.384;2023-04-15T05:18:49;7.40;99.90
14934;DHT22;7560;51.364;12.384;2023-04-15T05:23:51;7.40;99.90
14934;DHT22;7560;51.364;12.384;2023-04-15T05:28:52;7.50;99.90
14934;DHT22;7560;51.364;12.384;2023-04-15T05:33:54;7.40;99.90
14934;DHT22;7560;51.364;12.384;2023-04-15T05:38:56;7.40;99.90
14934;DHT22;7560;51.364;12.384;2023-04-15T05:43:58;7.50;99.90
14934;DHT22;7560;51.364;12.384;2023-04-15T05:48:59;7.50;99.90
14934;DHT22;7560;51.364;12.384;2023-04-15T05:54:01;7.50;99.90
14934;DHT22;7560;51.364;12.384;2023-04-15T05:59:03;7.40;99.90
14934;DHT22;7560;51.364;12.384;2023-04-15T06:04:05;7.50;99.90
14934;DHT22;7560;51.364;12.384;2023-04-15T06:09:07;7.50;99.90
14934;DHT22;7560;51.364;12.384;2023-04-15T06:14:09;7.50;99.90
14934;DHT22;7560;51.364;12.384;2023-04-15T06:19:10;7.50;99.90
14934;DHT22;7560;51.364;12.384;2023-04-15T06:24:13;7.60;99.90
14934;DHT22;7560;51.364;12.384;2023-04-15T06:29:14;7.70;99.90
14934;DHT22;7560;51.364;12.384;2023-04-15T06:34:16;7.60;99.90
14934;DHT22;7560;51.364;12.384;2023-04-15T06:39:18;7.70;99.90
14934;DHT22;7560;51.364;12.384;2023-04-15T06:44:20;7.70;99.90
14934;DHT22;7560;51.364;12.384;2023-04-15T06:49:21;7.70;99.90
14934;DHT22;7560;51.364;12.384;2023-04-15T06:54:23;7.70;99.90
14934;DHT22;7560;51.364;12.384;2023-04-15T06:59:25;7.80;99.90
14934;DHT22;7560;51.364;12.384;2023-04-15T07:04:27;7.90;99.90
14934;DHT22;7560;51.364;12.384;2023-04-15T07:09:29;7.90;99.90
14934;DHT22;7560;51.364;12.384;2023-04-15T07:14:31;8.00;99.90
14934;DHT22;7560;51.364;12.384;2023-04-15T07:19:33;7.90;99.90
14934;DHT22;7560;51.364;12.384;2023-04-15T07:24:35;8.00;99.90
14934;DHT22;7560;51.364;12.384;2023-04-15T07:29:36;8.00;99.90
14934;DHT22;7560;51.364;12.384;2023-04-15T07:34:38;7.90;99.90
14934;DHT22;7560;51.364;12.384;2023-04-15T07:39:40;8.00;99.90
14934;DHT22;7560;51.364;12.384;2023-04-15T07:44:42;8.00;99.90
14934;DHT22;7560;51.364;12.384;2023-04-15T07:49:43;8.00;99.90
14934;DHT22;7560;51.364;12.384;2023-04-15T07:54:45;8.10;99.90
14934;DHT22;7560;51.364;12.384;2023-04-15T07:59:47;8.10;99.90
14934;DHT22;7560;51.364;12.384;2023-04-15T08:04:49;8.20;99.90
14934;DHT22;7560;51.364;12.384;2023-04-15T08:09:51;8.20;99.90
14934;DHT22;7560;51.364;12.384;2023-04-15T08:14:54;8.30;99.90
14934;DHT22;7560;51.364;12.384;2023-04-15T08:19:55;8.30;99.90
14934;DHT22;7560;51.364;12.384;2023-04-15T08:24:57;8.30;99.90
14934;DHT22;7560;51.364;12.384;2023-04-15T08:30:00;8.40;99.90
14934;DHT22;7560;51.364;12.384;2023-04-15T08:35:05;8.40;99.90
14934;DHT22;7560;51.364;12.384;2023-04-15T08:40:09;8.40;99.90
14934;DHT22;7560;51.364;12.384;2023-04-15T08:45:11;8.50;99.90
14934;DHT22;7560;51.364;12.384;2023-04-15T08:50:13;8.50;99.90
14934;DHT22;7560;51.364;12.384;2023-04-15T08:55:16;8.60;99.90
14934;DHT22;7560;51.364;12.384;2023-04-15T09:00:18;8.60;99.90
14934;DHT22;7560;51.364;12.384;2023-04-15T09:05:20;8.70;99.90
14934;DHT22;7560;51.364;12.384;2023-04-15T09:10:22;8.70;99.90
14934;DHT22;7560;51.364;12.384;2023-04-15T09:15:24;9.00;99.90
14934;DHT22;7560;51.364;12.384;2023-04-15T09:20:32;9.00;99.90
14934;DHT22;7560;51.364;12.384;2023-04-15T09:25:39;9.10;99.90
14934;DHT22;7560;51.364;12.384;2023-04-15T09:30:44;9.10;99.90
14934;DHT22;7560;51.364;12.384;2023-04-15T09:36:02;9.20;99.90
14934;DHT22;7560;51.364;12.384;2023-04-15T09:41:16;9.30;99.90
14934;DHT22;7560;51.364;12.384;2023-04-15T09:46:20;9.40;99.90
14934;DHT22;7560;51.364;12.384;2023-04-15T09:51:40;9.40;99.90
14934;DHT22;7560;51.364;12.384;2023-04-15T09:56:54;9.30;99.90
14934;DHT22;7560;51.364;12.384;2023-04-15T10:01:56;9.40;99.90
14934;DHT22;7560;51.364;12.384;2023-04-15T10:06:59;9.50;99.90
14934;DHT22;7560;51.364;12.384;2023-04-15T10:12:03;9.50;99.90
14934;DHT22;7560;51.364;12.384;2023-04-15T10:17:06;9.70;99.90
14934;DHT22;7560;51.364;12.384;2023-04-15T10:22:13;9.70;99.90
14934;DHT22;7560;51.364;12.384;2023-04-15T10:27:16;9.90;99.90
14934;DHT22;7560;51.364;12.384;2023-04-15T10:32:19;9.80;99.90
14934;DHT22;7560;51.364;12.384;2023-04-15T10:37:32;9.80;99.90
14934;DHT22;7560;51.364;12.384;2023-04-15T10:42:34;9.90;99.90
14934;DHT22;7560;51.364;12.384;2023-04-15T10:47:36;10.00;99.90
14934;DHT22;7560;51.364;12.384;2023-04-15T10:52:41;10.10;99.90
14934;DHT22;7560;51.364;12.384;2023-04-15T10:57:43;10.10;99.90
14934;DHT22;7560;51.364;12.384;2023-04-15T11:02:55;10.10;99.90
14934;DHT22;7560;51.364;12.384;2023-04-15T11:07:57;10.20;99.90
14934;DHT22;7560;51.364;12.384;2023-04-15T11:13:05;10.30;99.90
14934;DHT22;7560;51.364;12.384;2023-04-15T11:18:23;10.30;99.90
14934;DHT22;7560;51.364;12.384;2023-04-15T11:23:36;10.50;99.90
14934;DHT22;7560;51.364;12.384;2023-04-15T11:28:40;10.50;99.90
14934;DHT22;7560;51.364;12.384;2023-04-15T11:33:52;10.50;99.90
14934;DHT22;7560;51.364;12.384;2023-04-15T11:38:56;10.50;99.90
14934;DHT22;7560;51.364;12.384;2023-04-15T11:43:58;10.60;99.90
14934;DHT22;7560;51.364;12.384;2023-04-15T11:49:00;10.60;99.90
14934;DHT22;7560;51.364;12.384;2023-04-15T11:54:02;10.50;99.90
14934;DHT22;7560;51.364;12.384;2023-04-15T11:59:04;10.50;99.90
14934;DHT22;7560;51.364;12.384;2023-04-15T12:04:14;10.50;99.90
14934;DHT22;7560;51.364;12.384;2023-04-15T12:09:18;10.50;99.90
14934;DHT22;7560;51.364;12.384;2023-04-15T12:14:25;10.60;99.90
14934;DHT22;7560;51.364;12.384;2023-04-15T12:19:34;10.50;99.90
14934;DHT22;7560;51.364;12.384;2023-04-15T12:24:36;10.50;99.90
14934;DHT22;7560;51.364;12.384;2023-04-15T12:29:39;10.60;99.90
14934;DHT22;7560;51.364;12.384;2023-04-15T12:34:46;10.70;99.90
14934;DHT22;7560;51.364;12.384;2023-04-15T12:39:50;10.90;99.90
14934;DHT22;7560;51.364;12.384;2023-04-15T12:44:52;11.00;99.90
14934;DHT22;7560;51.364;12.384;2023-04-15T12:49:54;11.10;99.90
14934;DHT22;7560;51.364;12.384;2023-04-15T12:54:56;11.30;99.90
14934;DHT22;7560;51.364;12.384;2023-04-15T12:59:58;11.60;99.90
14934;DHT22;7560;51.364;12.384;2023-04-15T13:04:59;11.60;99.90
14934;DHT22;7560;51.364;12.384;2023-04-15T13:10:01;11.30;99.90
14934;DHT22;7560;51.364;12.384;2023-04-15T13:15:03;11.30;99.90
14934;DHT22;7560;51.364;12.384;2023-04-15T13:20:06;11.40;99.90
14934;DHT22;7560;51.364;12.384;2023-04-15T13:25:09;11.40;99.90
14934;DHT22;7560;51.364;12.384;2023-04-15T13:30:11;11.30;99.90
14934;DHT22;7560;51.364;12.384;2023-04-15T13:35:13;11.40;99.90
14934;DHT22;7560;51.364;12.384;2023-04-15T13:40:15;11.30;99.90
14934;DHT22;7560;51.364;12.384;2023-04-15T13:45:18;11.40;99.90
14934;DHT22;7560;51.364;12.384;2023-04-15T13:50:20;11.40;99.90
14934;DHT22;7560;51.364;12.384;2023-04-15T13:55:22;11.50;99.90
14934;DHT22;7560;51.364;12.384;2023-04-15T14:00:27;11.60;99.90
14934;DHT22;7560;51.364;12.384;2023-04-15T14:05:29;11.60;99.90
14934;DHT22;7560;51.364;12.384;2023-04-15T14:10:31;11.60;99.90
14934;DHT22;7560;51.364;12.384;2023-04-15T14:15:33;11.60;99.90
14934;DHT22;7560;51.364;12.384;2023-04-15T14:20:35;11.50;99.90
14934;DHT22;7560;51.364;12.384;2023-04-15T14:25:37;11.50;99.90
14934;DHT22;7560;51.364;12.384;2023-04-15T14:30:39;11.40;99.90
14934;DHT22;7560;51.364;12.384;2023-04-15T14:35:41;11.40;99.90
14934;DHT22;7560;51.364;12.384;2023-04-15T14:40:43;11.50;99.90
14934;DHT22;7560;51.364;12.384;2023-04-15T14:45:45;11.40;99.90
14934;DHT22;7560;51.364;12.384;2023-04-15T14:50:47;11.40;99.90
14934;DHT22;7560;51.364;12.384;2023-04-15T14:55:49;11.50;99.90
14934;DHT22;7560;51.364;12.384;2023-04-15T15:00:51;11.40;99.90
14934;DHT22;7560;51.364;12.384;2023-04-15T15:05:53;11.40;99.90
14934;DHT22;7560;51.364;12.384;2023-04-15T15:10:55;11.50;99.90
14934;DHT22;7560;51.364;12.384;2023-04-15T15:15:59;11.60;99.90
14934;DHT22;7560;51.364;12.384;2023-04-15T15:21:01;11.60;99.90
14934;DHT22;7560;51.364;12.384;2023-04-15T15:26:04;11.70;99.90
14934;DHT22;7560;51.364;12.384;2023-04-15T15:31:05;11.60;99.90
14934;DHT22;7560;51.364;12.384;2023-04-15T15:36:08;11.40;99.90
14934;DHT22;7560;51.364;12.384;2023-04-15T15:41:11;11.50;99.90
14934;DHT22;7560;51.364;12.384;2023-04-15T15:46:13;11.50;99.90
14934;DHT22;7560;51.364;12.384;2023-04-15T15:51:15;11.70;99.90
14934;DHT22;7560;51.364;12.384;2023-04-15T15:56:16;11.70;99.90
14934;DHT22;7560;51.364;12.384;2023-04-15T16:01:18;11.60;99.90
14934;DHT22;7560;51.364;12.384;2023-04-15T16:06:20;11.70;99.90
14934;DHT22;7560;51.364;12.384;2023-04-15T16:11:22;11.60;99.90
14934;DHT22;7560;51.364;12.384;2023-04-15T16:16:24;11.80;99.90
14934;DHT22;7560;51.364;12.384;2023-04-15T16:21:26;11.60;99.90
14934;DHT22;7560;51.364;12.384;2023-04-15T16:26:28;11.60;99.90
14934;DHT22;7560;51.364;12.384;2023-04-15T16:31:30;11.60;99.90
14934;DHT22;7560;51.364;12.384;2023-04-15T16:36:33;11.50;99.90
14934;DHT22;7560;51.364;12.384;2023-04-15T16:41:35;11.60;99.90
14934;DHT22;7560;51.364;12.384;2023-04-15T16:46:38;11.60;99.90
14934;DHT22;7560;51.364;12.384;2023-04-15T16:51:41;11.50;99.90
14934;DHT22;7560;51.364;12.384;2023-04-15T16:56:43;11.40;99.90
14934;DHT22;7560;51.364;12.384;2023-04-15T17:01:45;11.40;99.90
14934;DHT22;7560;51.364;12.384;2023-04-15T17:06:47;11.40;99.90
14934;DHT22;7560;51.364;12.384;2023-04-15T17:11:49;11.30;99.90
14934;DHT22;7560;51.364;12.384;2023-04-15T17:16:51;11.30;99.90
14934;DHT22;7560;51.364;12.384;2023-04-15T17:21:53;11.30;99.90
14934;DHT22;7560;51.364;12.384;2023-04-15T17:26:55;11.10;99.90
14934;DHT22;7560;51.364;12.384;2023-04-15T17:31:57;11.10;99.90
14934;DHT22;7560;51.364;12.384;2023-04-15T17:37:00;11.10;99.90
14934;DHT22;7560;51.364;12.384;2023-04-15T17:42:02;11.10;99.90
14934;DHT22;7560;51.364;12.384;2023-04-15T17:47:03;11.10;99.90
14934;DHT22;7560;51.364;12.384;2023-04-15T17:52:05;11.00;99.90
14934;DHT22;7560;51.364;12.384;2023-04-15T17:57:08;10.90;99.90
14934;DHT22;7560;51.364;12.384;2023-04-15T18:02:10;10.90;99.90
14934;DHT22;7560;51.364;12.384;2023-04-15T18:07:13;10.90;99.90
14934;DHT22;7560;51.364;12.384;2023-04-15T18:12:15;10.80;99.90
14934;DHT22;7560;51.364;12.384;2023-04-15T18:17:17;10.80;99.90
14934;DHT22;7560;51.364;12.384;2023-04-15T18:22:19;10.80;99.90
14934;DHT22;7560;51.364;12.384;2023-04-15T18:27:21;10.90;99.90
14934;DHT22;7560;51.364;12.384;2023-04-15T18:32:23;10.90;99.90
14934;DHT22;7560;51.364;12.384;2023-04-15T18:37:26;10.80;99.90
14934;DHT22;7560;51.364;12.384;2023-04-15T18:42:31;10.90;99.90
14934;DHT22;7560;51.364;12.384;2023-04-15T18:47:33;10.90;99.90
14934;DHT22;7560;51.364;12.384;2023-04-15T18:52:35;10.90;99.90
14934;DHT22;7560;51.364;12.384;2023-04-15T18:57:36;10.90;99.90
14934;DHT22;7560;51.364;12.384;2023-04-15T19:02:44;10.90;99.90
14934;DHT22;7560;51.364;12.384;2023-04-15T19:07:46;10.90;99.90
14934;DHT22;7560;51.364;12.384;2023-04-15T19:12:48;11.00;99.90
14934;DHT22;7560;51.364;12.384;2023-04-15T19:17:50;10.90;99.90
14934;DHT22;7560;51.364;12.384;2023-04-15T19:22:53;10.90;99.90
14934;DHT22;7560;51.364;12.384;2023-04-15T19:27:55;10.90;99.90
14934;DHT22;7560;51.364;12.384;2023-04-15T19:32:59;10.90;99.90
14934;DHT22;7560;51.364;12.384;2023-04-15T19:38:03;10.90;99.90
14934;DHT22;7560;51.364;12.384;2023-04-15T19:43:05;10.90;99.90
14934;DHT22;7560;51.364;12.384;2023-04-15T19:48:08;10.90;99.90
14934;DHT22;7560;51.364;12.384;2023-04-15T19:53:09;10.90;99.90
14934;DHT22;7560;51.364;12.384;2023-04-15T19:58:11;10.90;99.90
14934;DHT22;7560;51.364;12.384;2023-04-15T20:03:13;10.80;99.90
14934;DHT22;7560;51.364;12.384;2023-04-15T20:08:16;10.80;99.90
14934;DHT22;7560;51.364;12.384;2023-04-15T20:13:18;10.80;99.90
14934;DHT22;7560;51.364;12.384;2023-04-15T20:18:20;10.70;99.90
14934;DHT22;7560;51.364;12.384;2023-04-15T20:23:21;10.70;99.90
14934;DHT22;7560;51.364;12.384;2023-04-15T20:28:23;10.80;99.90
14934;DHT22;7560;51.364;12.384;2023-04-15T20:33:28;10.80;99.90
14934;DHT22;7560;51.364;12.384;2023-04-15T20:38:29;10.80;99.90
14934;DHT22;7560;51.364;12.384;2023-04-15T20:43:31;10.90;99.90
14934;DHT22;7560;51.364;12.384;2023-04-15T20:48:33;10.80;99.90
14934;DHT22;7560;51.364;12.384;2023-04-15T20:53:36;10.80;99.90
14934;DHT22;7560;51.364;12.384;2023-04-15T20:58:38;10.80;99.90
14934;DHT22;7560;51.364;12.384;2023-04-15T21:03:40;10.80;99.90
14934;DHT22;7560;51.364;12.384;2023-04-15T21:08:43;10.80;99.90
14934;DHT22;7560;51.364;12.384;2023-04-15T21:13:44;10.80;99.90
14934;DHT22;7560;51.364;12.384;2023-04-15T21:18:47;10.80;99.90
14934;DHT22;7560;51.364;12.384;2023-04-15T21:23:48;10.80;99.90
14934;DHT22;7560;51.364;12.384;2023-04-15T21:28:50;10.70;99.90
14934;DHT22;7560;51.364;12.384;2023-04-15T21:33:52;10.70;99.90
14934;DHT22;7560;51.364;12.384;2023-04-15T21:38:54;10.70;99.90
14934;DHT22;7560;51.364;12.384;2023-04-15T21:43:56;10.70;99.90
14934;DHT22;7560;51.364;12.384;2023-04-15T21:48:57;10.70;99.90
14934;DHT22;7560;51.364;12.384;2023-04-15T21:53:59;10.70;99.90
14934;DHT22;7560;51.364;12.384;2023-04-15T21:59:01;10.70;99.90
14934;DHT22;7560;51.364;12.384;2023-04-15T22:04:03;10.70;99.90
14934;DHT22;7560;51.364;12.384;2023-04-15T22:09:08;10.70;99.90
14934;DHT22;7560;51.364;12.384;2023-04-15T22:14:13;10.60;99.90
14934;DHT22;7560;51.364;12.384;2023-04-15T22:19:16;10.60;99.90
14934;DHT22;7560;51.364;12.384;2023-04-15T22:24:18;10.60;99.90
14934;DHT22;7560;51.364;12.384;2023-04-15T22:29:40;10.60;99.90
14934;DHT22;7560;51.364;12.384;2023-04-15T22:34:42;10.70;99.90
14934;DHT22;7560;51.364;12.384;2023-04-15T22:39:43;10.60;99.90
14934;DHT22;7560;51.364;12.384;2023-04-15T22:44:45;10.60;99.90
14934;DHT22;7560;51.364;12.384;2023-04-15T22:49:47;10.60;99.90
14934;DHT22;7560;51.364;12.384;2023-04-15T22:54:49;10.60;99.90
14934;DHT22;7560;51.364;12.384;2023-04-15T22:59:50;10.60;99.90
14934;DHT22;7560;51.364;12.384;2023-04-15T23:04:52;10.60;99.90
14934;DHT22;7560;51.364;12.384;2023-04-15T23:09:54;10.60;99.90
14934;DHT22;7560;51.364;12.384;2023-04-15T23:14:56;10.60;99.90
14934;DHT22;7560;51.364;12.384;2023-04-15T23:19:57;10.60;99.90
14934;DHT22;7560;51.364;12.384;2023-04-15T23:24:59;10.60;99.90
14934;DHT22;7560;51.364;12.384;2023-04-15T23:30:01;10.60;99.90
14934;DHT22;7560;51.364;12.384;2023-04-15T23:35:03;10.60;99.90
14934;DHT22;7560;51.364;12.384;2023-04-15T23:40:06;10.60;99.90
14934;DHT22;7560;51.364;12.384;2023-04-15T23:45:08;10.60;99.90
14934;DHT22;7560;51.364;12.384;2023-04-15T23:50:10;10.60;99.90
14934;DHT22;7560;51.364;12.384;2023-04-15T23:55:12;10.60;99.90
